Latest Weather Observations for Braidwood

IDN60801

Issued at 11:03 pm EST Saturday 30 July 2016 (issued every 30 minutes, with the page automatically refreshed every 10 minutes)

About weather observations | Map of weather stations | Latest weather observations for NSW | Other Formats
Station Details ID: 069132 Name: BRAIDWOOD RACECOURSE AWS Lat: -35.43 Lon: 149.78 Height: 665.2 m
Data from the previous 72 hours. | See also: Recent months at Braidwood
Date/Time
EST
Temp
°C
App
Temp
°C
Dew
Point
°C
Rel
Hum
%
Delta-T
°C
Wind Press
QNH
hPa
Press
MSL
hPa
Rain since
9am
mm
Dir  Spd
km/h
Gust
km/h
Spd
kts
Gust
kts
30/11:00pm 7.0 4.0 4.0 81 1.3 NNW 9 15 5 8 1018.0 1019.1 0.0
30/10:30pm 7.0 2.9 4.3 83 1.2 NW 15 22 8 12 1018.2 1019.3 0.0
30/10:00pm 6.6 4.0 4.3 85 1.0 NNE 7 11 4 6 1018.3 1019.4 0.0
30/09:30pm 6.8 4.3 4.5 85 1.0 NNE 7 15 4 8 1018.5 1019.6 0.0
30/09:00pm 6.8 3.8 4.1 83 1.2 NNE 9 17 5 9 1018.7 1019.8 0.0
30/08:30pm 6.9 4.3 4.0 82 1.3 NNE 7 15 4 8 1019.0 1020.0 0.0
30/08:00pm 6.8 4.2 4.1 83 1.2 NNW 7 13 4 7 1018.7 1019.8 0.0
30/07:30pm 6.8 3.4 3.9 82 1.3 NW 11 19 6 10 1018.6 1019.7 0.0
30/07:00pm 7.0 4.4 3.4 78 1.6 NNW 6 13 3 7 1018.6 1019.7 0.0
30/06:30pm 6.9 4.3 3.3 78 1.6 NNW 6 9 3 5 1018.6 1019.7 0.0
30/06:00pm 7.3 4.2 3.4 76 1.7 NW 9 13 5 7 1018.6 1019.7 0.0
30/05:30pm 8.3 4.8 3.4 71 2.2 NW 11 19 6 10 1018.7 1019.8 0.0
30/05:00pm 9.3 5.8 3.5 67 2.6 NW 11 15 6 8 1018.7 1019.8 0.0
30/04:30pm 10.8 7.3 3.4 60 3.4 NNW 11 20 6 11 1018.8 1019.9 0.0
30/04:00pm 11.7 8.4 4.4 61 3.4 NNW 11 17 6 9 1019.1 1020.2 0.0
30/03:30pm 12.1 8.8 4.3 59 3.7 NNW 11 20 6 11 1019.2 1020.3 0.0
30/03:00pm 11.8 8.4 4.1 59 3.6 NW 11 19 6 10 1019.3 1020.4 0.0
30/02:30pm 12.4 9.4 3.9 56 4.0 NNW 9 15 5 8 1019.6 1020.7 0.0
30/02:00pm 12.2 8.7 3.4 55 4.0 NNW 11 20 6 11 1019.9 1021.0 0.0
30/01:30pm 12.0 9.4 4.2 59 3.7 N 7 19 4 10 1020.2 1021.3 0.0
30/01:00pm 11.0 8.2 3.1 58 3.6 NNE 7 13 4 7 1020.7 1021.8 0.0
30/12:30pm 10.7 8.3 4.4 65 2.9 NNE 6 11 3 6 1021.4 1022.5 0.0
30/12:00pm 8.8 6.4 4.2 73 2.1 NNE 6 11 3 6 1021.9 1023.1 0.0
30/11:30am 6.1 4.0 4.1 87 0.9 NNE 4 9 2 5 1022.4 1023.5 0.0
30/11:00am 4.5 2.4 4.1 97 0.2 NNW 4 7 2 4 1022.9 1024.1 0.0
30/10:30am 3.9 1.4 3.5 97 0.2 NNW 6 9 3 5 1023.3 1024.5 0.0
30/10:00am 3.4 1.1 3.0 97 0.2 NNW 4 7 2 4 1023.4 1024.6 0.0
30/09:30am 2.9 0.6 2.5 97 0.2 N 4 7 2 4 1023.4 1024.6 0.0
30/09:00am 2.6 1.0 2.2 97 0.2 CALM 0 0 0 0 1023.4 1024.6 0.0
30/08:30am 2.4 0.3 2.0 97 0.2 NNE 2 6 1 3 1023.3 1024.5 0.0
30/08:00am 2.0 -0.1 1.6 97 0.2 NNE 2 6 1 3 1023.0 1024.2 0.0
30/07:30am 1.3 -0.5 0.9 97 0.2 CALM 0 0 0 0 1023.0 1024.2 0.0
30/07:00am 1.3 -1.3 0.9 97 0.2 E 4 7 2 4 1022.7 1023.8 0.0
30/06:30am 0.8 -1.1 0.4 97 0.2 CALM 0 0 0 0 1022.5 1023.6 0.0
30/06:00am 0.4 -1.6 0.0 97 0.2 CALM 0 0 0 0 1022.4 1023.5 0.0
30/05:30am 0.2 -1.8 -0.2 97 0.1 CALM 0 0 0 0 1022.0 1023.2 0.0
30/05:00am 0.0 -2.0 -0.4 97 0.1 CALM 0 0 0 0 1021.7 1022.9 0.0
30/04:30am 0.6 -1.8 0.0 96 0.2 NNE 2 6 1 3 1021.5 1022.6 0.0
30/04:00am 0.9 -1.4 0.3 96 0.2 N 2 4 1 2 1021.5 1022.6 0.0
30/03:30am 1.5 -0.7 0.9 96 0.2 N 2 4 1 2 1021.4 1022.5 0.0
30/03:00am 1.7 -0.1 1.0 95 0.3 CALM 0 2 0 1 1021.3 1022.4 0.0
30/02:30am 1.9 -0.7 1.2 95 0.3 NNE 4 7 2 4 1021.5 1022.6 0.0
30/02:00am 2.2 0.4 1.5 95 0.3 CALM 0 4 0 2 1021.6 1022.8 0.0
30/01:30am 1.9 -0.4 0.7 92 0.5 NNE 2 6 1 3 1021.7 1022.9 0.0
30/01:00am 2.5 0.7 1.0 90 0.6 CALM 0 0 0 0 1021.6 1022.8 0.0
30/12:30am 3.8 1.8 2.5 91 0.5 N 2 2 1 1 1021.6 1022.8 0.0
30/12:00am 4.2 2.7 2.9 91 0.5 CALM 0 0 0 0 1021.8 1023.0 0.0
 
Date/Time
EST
Temp
°C
App
Temp
°C
Dew
Point
°C
Rel
Hum
%
Delta-T
°C
Wind Press
QNH
hPa
Press
MSL
hPa
Rain since
9am
mm
Dir  Spd
km/h
Gust
km/h
Spd
kts
Gust
kts
29/11:30pm 4.4 2.9 3.1 91 0.6 CALM 0 0 0 0 1021.8 1023.0 0.0
29/11:00pm 4.4 2.9 2.9 90 0.6 CALM 0 4 0 2 1021.7 1022.9 0.0
29/10:30pm 4.7 2.5 3.4 91 0.6 NNE 4 6 2 3 1021.4 1022.5 0.0
29/10:00pm 4.7 2.5 3.2 90 0.6 NNW 4 7 2 4 1021.2 1022.3 0.0
29/09:30pm 4.9 3.1 3.2 89 0.7 N 2 6 1 3 1021.1 1022.2 0.0
29/09:00pm 5.1 2.6 3.6 90 0.7 NNW 6 9 3 5 1021.3 1022.4 0.0
29/08:30pm 5.0 2.2 3.2 88 0.8 NNE 7 11 4 6 1020.9 1022.0 0.0
29/08:00pm 5.3 3.1 3.2 86 0.9 NNE 4 7 2 4 1020.7 1021.8 0.0
29/07:30pm 5.6 3.0 3.1 84 1.1 N 6 11 3 6 1020.3 1021.5 0.0
29/07:00pm 6.3 3.2 3.5 82 1.2 NNW 9 17 5 9 1019.6 1020.7 0.0
29/06:30pm 6.3 3.2 3.5 82 1.2 NNW 9 17 5 9 1019.5 1020.6 0.0
29/06:00pm 6.5 3.4 3.5 81 1.3 NNW 9 17 5 9 1019.2 1020.3 0.0
29/05:30pm 6.8 3.7 3.4 79 1.5 NNW 9 15 5 8 1019.2 1020.3 0.0
29/05:00pm 7.5 4.8 3.6 76 1.7 N 7 15 4 8 1019.0 1020.0 0.0
29/04:30pm 8.3 5.2 3.8 73 2.0 NNW 9 20 5 11 1018.6 1019.7 0.0
29/04:00pm 9.6 6.2 4.0 68 2.6 NW 11 22 6 12 1018.5 1019.6 0.0
29/03:30pm 11.9 8.9 4.2 59 3.6 N 9 17 5 9 1018.2 1019.3 0.0
29/03:00pm 11.6 7.6 3.1 56 3.9 NW 13 24 7 13 1018.2 1019.3 0.0
29/02:30pm 12.1 8.5 3.1 54 4.1 NNW 11 22 6 12 1018.1 1019.2 0.0
29/02:00pm 12.2 8.2 2.9 53 4.2 NNW 13 22 7 12 1018.1 1019.2 0.0
29/01:30pm 11.6 7.6 2.6 54 4.1 NW 13 20 7 11 1018.7 1019.8 0.0
29/01:00pm 11.8 6.2 1.2 48 4.6 NW 20 28 11 15 1018.5 1019.6 0.0
29/12:30pm 10.6 4.9 0.6 50 4.3 WNW 20 28 11 15 1019.4 1020.5 0.0
29/12:00pm 9.2 3.8 1.4 58 3.3 WNW 19 22 10 12 1020.2 1021.3 0.0
29/11:30am 9.6 3.7 2.0 59 3.3 WNW 22 32 12 17 1020.4 1021.6 0.0
29/11:00am 9.7 6.5 3.0 63 3.0 NNW 9 17 5 9 1020.4 1021.6 0.0
29/10:30am 8.6 4.8 2.0 63 2.9 NNW 11 19 6 10 1021.0 1022.1 0.0
29/10:00am 8.3 5.3 1.9 64 2.7 NNW 7 15 4 8 1021.1 1022.2 0.0
29/09:30am 6.9 4.0 1.4 68 2.3 NNW 6 13 3 7 1021.3 1022.4 0.0
29/09:00am 5.8 2.8 2.1 77 1.6 NNW 7 11 4 6 1021.5 1022.6 0.0
29/08:30am 4.4 1.1 2.3 86 0.9 NNW 9 15 5 8 1021.3 1022.4 0.0
29/08:00am 2.0 -1.2 0.7 91 0.5 NW 7 11 4 6 1021.4 1022.5 0.0
29/07:30am 0.9 -2.2 0.2 95 0.3 NNW 6 9 3 5 1021.4 1022.5 0.0
29/07:00am 0.7 -2.4 0.0 95 0.3 NNW 6 13 3 7 1021.5 1022.6 0.0
29/06:30am 0.8 -2.3 0.4 97 0.2 NW 6 13 3 7 1021.7 1022.9 0.0
29/06:00am 0.6 -2.5 0.2 97 0.2 N 6 11 3 6 1021.3 1022.4 0.0
29/05:30am 0.0 -3.4 -0.4 97 0.1 NNW 7 13 4 7 1021.2 1022.3 0.0
29/05:00am -1.2 -3.8 -1.8 96 0.2 N 2 6 1 3 1021.1 1022.2 0.0
29/04:30am -1.7 -4.0 -2.7 93 0.3 CALM 0 0 0 0 1021.0 1022.1 0.0
29/04:00am -0.4 -2.5 -1.1 95 0.2 CALM 0 0 0 0 1021.0 1022.1 0.0
29/03:30am -0.3 -2.8 -0.9 96 0.2 NNE 2 6 1 3 1021.2 1022.3 0.0
29/03:00am -1.6 -4.0 -3.2 89 0.5 CALM 0 2 0 1 1021.4 1022.5 0.0
29/02:30am 0.5 -2.3 -0.6 92 0.4 NNE 4 6 2 3 1021.5 1022.6 0.0
29/02:00am 1.1 -2.0 0.1 93 0.4 NNE 6 9 3 5 1021.8 1023.0 0.0
29/01:30am 0.8 -1.2 -0.1 94 0.3 CALM 0 0 0 0 1022.0 1023.2 0.0
29/01:00am 0.7 -1.3 -0.3 93 0.4 CALM 0 0 0 0 1022.3 1023.4 0.0
29/12:30am 0.9 -1.1 -0.2 92 0.4 CALM 0 0 0 0 1022.2 1023.3 0.0
29/12:00am 0.8 -1.7 -0.8 89 0.6 N 2 4 1 2 1022.4 1023.5 0.0
 
Date/Time
EST
Temp
°C
App
Temp
°C
Dew
Point
°C
Rel
Hum
%
Delta-T
°C
Wind Press
QNH
hPa
Press
MSL
hPa
Rain since
9am
mm
Dir  Spd
km/h
Gust
km/h
Spd
kts
Gust
kts
28/11:30pm 1.5 -0.9 -0.4 87 0.7 N 2 6 1 3 1022.4 1023.5 0.0
28/11:00pm 1.9 -0.9 -0.5 84 0.9 NNE 4 6 2 3 1022.3 1023.4 0.0
28/10:30pm 3.1 -1.3 0.3 82 1.1 NW 13 19 7 10 1022.0 1023.2 0.0
28/10:00pm 1.8 -0.6 0.0 88 0.7 NNW 2 6 1 3 1022.5 1023.6 0.0
28/09:30pm 2.1 -0.7 -0.3 84 0.9 NNW 4 6 2 3 1022.8 1023.9 0.0
28/09:00pm 3.1 0.1 0.5 83 1.0 N 6 13 3 7 1022.6 1023.7 0.0
28/08:30pm 3.5 0.3 0.9 83 1.0 NW 7 11 4 6 1022.5 1023.6 0.0
28/08:00pm 4.3 1.3 0.8 78 1.4 NNW 6 9 3 5 1022.6 1023.7 0.0
28/07:30pm 6.2 2.7 1.3 71 2.0 NW 9 17 5 9 1022.6 1023.7 0.0
28/07:00pm 6.9 3.4 1.4 68 2.3 NW 9 19 5 10 1022.4 1023.5 0.0
28/06:30pm 7.2 0.5 1.7 68 2.3 WNW 26 37 14 20 1021.8 1023.0 0.0
28/06:00pm 7.3 2.9 2.6 72 2.0 NW 15 22 8 12 1021.4 1022.5 0.0
28/05:30pm 7.1 3.8 2.6 73 1.9 NNW 9 17 5 9 1021.1 1022.2 0.0
28/05:00pm 9.6 5.8 1.5 57 3.5 NW 11 22 6 12 1020.9 1022.0 0.0
28/04:30pm 10.9 6.3 1.4 52 4.1 NW 15 26 8 14 1020.8 1021.9 0.0
28/04:00pm 11.6 6.6 1.5 50 4.4 NW 17 22 9 12 1020.7 1021.8 0.0
28/03:30pm 11.8 6.9 1.7 50 4.5 NW 17 24 9 13 1020.4 1021.6 0.0
28/03:00pm 12.1 6.4 3.1 54 4.1 WNW 22 33 12 18 1020.3 1021.5 0.0
28/02:30pm 12.4 7.4 3.4 54 4.2 WNW 19 24 10 13 1020.6 1021.7 0.0
28/02:00pm 12.6 8.0 3.6 54 4.2 WNW 17 24 9 13 1020.6 1021.7 0.0
28/01:30pm 11.9 7.1 2.4 52 4.3 WNW 17 24 9 13 1020.6 1021.7 0.0
28/01:00pm 11.7 8.2 3.5 57 3.8 NW 11 19 6 10 1021.0 1022.1 0.0
28/12:30pm 11.3 7.9 4.1 61 3.3 NNW 11 20 6 11 1021.4 1022.5 0.0
28/12:00pm 10.0 6.1 3.3 63 3.0 NNW 13 24 7 13 1021.5 1022.6 0.0
28/11:30am 9.2 5.3 3.2 66 2.7 NNW 13 28 7 15 1022.3 1023.4 0.0
28/11:00am 8.8 4.4 2.8 66 2.6 NNW 15 28 8 15 1022.7 1023.8 0.0
28/10:30am 8.6 4.7 3.2 69 2.4 NNW 13 20 7 11 1022.8 1023.9 0.0
28/10:00am 7.5 4.2 2.6 71 2.1 NNW 9 19 5 10 1022.7 1023.8 0.0
28/09:30am 7.2 4.3 2.7 73 2.0 N 7 15 4 8 1022.7 1023.8 0.0
28/09:00am 5.6 2.6 2.1 78 1.5 NNW 7 15 4 8 1022.7 1023.8 0.0
28/08:30am 4.6 1.8 2.1 84 1.0 N 6 9 3 5 1022.6 1023.7 0.0
28/08:00am 2.4 -0.2 1.2 92 0.5 NNW 4 6 2 3 1022.8 1023.9 0.0
28/07:30am 0.9 -1.4 0.2 95 0.3 N 2 4 1 2 1022.8 1023.9 0.0
28/07:00am 0.5 -1.9 -0.4 94 0.3 N 2 6 1 3 1022.4 1023.5 0.0
28/06:30am 1.2 -1.9 0.3 94 0.3 N 6 11 3 6 1022.3 1023.4 0.0
28/06:00am 1.5 -1.5 0.8 95 0.3 NW 6 9 3 5 1021.9 1023.1 0.0
28/05:30am 1.3 -1.0 0.3 93 0.4 N 2 2 1 1 1021.4 1022.5 0.0
28/05:00am 1.4 -1.3 0.1 91 0.5 N 4 7 2 4 1021.2 1022.3 0.0
28/04:30am 2.0 -0.3 0.7 91 0.5 NW 2 7 1 4 1020.9 1022.0 0.0
28/04:00am 2.2 -0.1 0.3 87 0.7 N 2 4 1 2 1020.4 1021.6 0.0
28/03:30am 2.0 -0.7 0.2 88 0.7 NNW 4 7 2 4 1020.1 1021.2 0.0
28/03:00am 2.4 -0.6 0.8 89 0.6 NNW 6 11 3 6 1019.9 1021.0 0.0
28/02:30am 2.9 0.4 1.6 91 0.5 NNW 4 6 2 3 1020.1 1021.2 0.0
28/02:00am 2.4 -0.6 0.8 89 0.6 N 6 6 3 3 1019.9 1021.0 0.0
28/01:30am 3.8 0.9 1.4 84 1.0 NNW 6 9 3 5 1020.0 1021.1 0.0
28/01:00am 4.1 0.0 2.3 88 0.7 WNW 13 17 7 9 1019.9 1021.0 0.0
28/12:30am 3.0 0.5 1.4 89 0.6 NNW 4 7 2 4 1019.9 1021.0 0.0
28/12:00am 3.1 0.1 0.8 85 0.9 NNW 6 11 3 6 1019.9 1021.0 0.0
 
Date/Time
EST
Temp
°C
App
Temp
°C
Dew
Point
°C
Rel
Hum
%
Delta-T
°C
Wind Press
QNH
hPa
Press
MSL
hPa
Rain since
9am
mm
Dir  Spd
km/h
Gust
km/h
Spd
kts
Gust
kts
27/11:30pm 4.4 2.0 1.9 84 1.0 NE 4 6 2 3 1020.2 1021.3 0.0

Other Formats:

Comma delimited format used in spreadsheet applications
http://www.bom.gov.au/fwo/IDN60801/IDN60801.94927.axf

JavaScript Object Notation format (JSON) in row-major order
http://www.bom.gov.au/fwo/IDN60801/IDN60801.94927.json